createdAt,value
2019-04-24T00:02:04.308Z,7.97
2019-04-24T00:07:10.732Z,7.83
2019-04-24T00:09:46.850Z,6.73
2019-04-24T00:12:26.190Z,9.97
2019-04-24T00:23:09.559Z,7.07
2019-04-24T00:25:40.961Z,8.13
2019-04-24T00:30:44.980Z,7.07
2019-04-24T00:33:17.941Z,8.93
2019-04-24T00:36:10.522Z,8.90
2019-04-24T00:38:36.164Z,10.50
2019-04-24T00:43:36.639Z,8.17
2019-04-24T00:46:09.618Z,10.63
2019-04-24T00:53:46.193Z,12.47
2019-04-24T00:56:15.946Z,9.87
2019-04-24T00:58:35.975Z,9.10
2019-04-24T01:01:38.176Z,12.63
2019-04-24T01:07:30.100Z,9.20
2019-04-24T01:12:59.377Z,11.07
2019-04-24T01:15:23.989Z,10.23
2019-04-24T01:17:49.043Z,11.87
2019-04-24T01:20:27.245Z,10.03
2019-04-24T01:22:53.962Z,12.43
2019-04-24T01:25:32.909Z,11.13
2019-04-24T01:35:53.181Z,10.73
2019-04-24T01:38:35.169Z,9.63
2019-04-24T01:41:00.072Z,9.87
2019-04-24T01:46:01.640Z,14.07
2019-04-24T01:50:58.942Z,13.40
2019-04-24T01:53:28.269Z,11.70
2019-04-24T01:56:03.197Z,12.50
2019-04-24T02:03:51.463Z,12.17
2019-04-24T02:09:11.365Z,12.87
2019-04-24T02:12:20.925Z,12.67
2019-04-24T02:17:22.765Z,12.27
2019-04-24T02:19:40.279Z,14.87
2019-04-24T02:22:18.087Z,12.63
2019-04-24T02:24:43.586Z,12.30
2019-04-24T02:27:18.202Z,12.50
2019-04-24T02:30:04.959Z,12.07
2019-04-24T02:35:24.698Z,8.97
2019-04-24T02:40:28.792Z,8.60
2019-04-24T02:50:24.780Z,10.10
2019-04-24T02:55:13.361Z,10.63
2019-04-24T02:58:05.446Z,8.33
2019-04-24T03:00:43.677Z,9.30
2019-04-24T03:05:44.697Z,7.23
2019-04-24T03:10:42.268Z,8.40
2019-04-24T03:15:48.205Z,8.27
2019-04-24T03:18:31.224Z,8.63
2019-04-24T03:23:42.020Z,8.50
2019-04-24T03:26:38.945Z,10.87
2019-04-24T03:28:32.786Z,9.67
2019-04-24T03:31:18.971Z,11.57
2019-04-24T03:33:59.346Z,10.57
2019-04-24T03:48:57.429Z,9.63
2019-04-24T03:57:15.710Z,8.70
2019-04-24T03:59:29.204Z,8.57
2019-04-24T04:05:23.483Z,9.27
2019-04-24T04:08:07.262Z,11.20
2019-04-24T04:10:28.004Z,9.03
2019-04-24T04:20:46.656Z,9.10
2019-04-24T04:26:12.328Z,10.00
2019-04-24T04:28:44.259Z,9.77
2019-04-24T04:31:36.326Z,14.90
2019-04-24T04:36:55.064Z,10.43
2019-04-24T04:39:32.642Z,11.83
2019-04-24T04:44:36.354Z,11.63
2019-04-24T04:47:24.251Z,12.37
2019-04-24T04:58:00.613Z,12.13
2019-04-24T05:03:21.416Z,11.30
2019-04-24T05:08:38.914Z,11.83
2019-04-24T05:10:48.148Z,11.27
2019-04-24T05:15:55.105Z,14.67
2019-04-24T05:23:33.841Z,13.40
2019-04-24T05:27:06.381Z,15.27
2019-04-24T05:29:07.233Z,12.37
2019-04-24T05:31:34.580Z,12.27
2019-04-24T05:34:10.607Z,15.57
2019-04-24T05:39:31.342Z,13.17
2019-04-24T05:44:13.413Z,13.10
2019-04-24T05:46:43.211Z,13.47
2019-04-24T05:49:22.477Z,13.47
2019-04-24T05:51:56.477Z,13.50
2019-04-24T05:54:53.341Z,14.57
2019-04-24T06:00:21.808Z,13.93
2019-04-24T06:02:52.418Z,13.20
2019-04-24T06:05:26.448Z,12.53
2019-04-24T06:13:39.032Z,17.37
2019-04-24T06:19:34.310Z,14.00
2019-04-24T06:22:00.588Z,17.23
2019-04-24T06:27:01.982Z,14.20
2019-04-24T06:29:51.859Z,17.40
2019-04-24T06:37:43.848Z,16.83
2019-04-24T06:43:16.523Z,16.90
2019-04-24T06:48:06.736Z,27.97
2019-04-24T06:58:12.935Z,14.83
2019-04-24T07:01:12.529Z,14.80
2019-04-24T07:04:05.895Z,17.17
2019-04-24T07:06:35.102Z,15.53
2019-04-24T07:09:13.898Z,18.43
2019-04-24T07:11:42.263Z,18.73
2019-04-24T07:14:09.942Z,14.97
2019-04-24T07:17:17.233Z,15.10
2019-04-24T07:19:39.484Z,14.80
2019-04-24T07:22:18.326Z,15.70
2019-04-24T07:24:52.865Z,13.63
2019-04-24T07:32:42.698Z,16.33
2019-04-24T07:40:33.047Z,16.33
2019-04-24T07:43:15.042Z,13.50
2019-04-24T07:45:47.330Z,14.77
2019-04-24T07:48:03.095Z,15.13
2019-04-24T08:02:03.086Z,13.47
2019-04-24T08:07:06.615Z,13.83
2019-04-24T08:12:35.183Z,15.38
2019-04-24T08:15:13.901Z,12.28
2019-04-24T08:20:33.909Z,12.82
2019-04-24T08:22:44.723Z,11.60
2019-04-24T08:27:48.611Z,15.15
2019-04-24T08:35:22.997Z,12.88
2019-04-24T08:46:05.392Z,12.45
2019-04-24T08:51:27.306Z,11.65
2019-04-24T08:53:54.233Z,10.68
2019-04-24T08:56:18.250Z,11.05
2019-04-24T09:01:46.704Z,13.80
2019-04-24T09:04:13.865Z,11.35
2019-04-24T09:06:35.530Z,10.63
2019-04-24T09:09:23.598Z,11.15
2019-04-24T09:12:38.918Z,13.28
2019-04-24T09:17:10.188Z,14.65
2019-04-24T09:20:07.810Z,13.03
2019-04-24T09:22:12.638Z,12.73
2019-04-24T09:35:15.282Z,11.22
2019-04-24T09:38:00.447Z,13.85
2019-04-24T09:45:57.926Z,12.95
2019-04-24T09:48:32.482Z,13.75
2019-04-24T09:50:58.871Z,10.82
2019-04-24T09:53:51.950Z,26.70
2019-04-24T09:56:06.523Z,13.38
2019-04-24T10:09:17.484Z,11.80
2019-04-24T10:12:12.569Z,16.20
2019-04-24T10:14:29.001Z,12.65
2019-04-24T10:20:01.109Z,14.10
2019-04-24T10:22:19.339Z,12.63
2019-04-24T10:24:59.838Z,11.38
2019-04-24T10:27:34.938Z,12.88
2019-04-24T10:30:00.475Z,11.15
2019-04-24T10:32:55.137Z,11.70
2019-04-24T10:35:39.806Z,15.43
2019-04-24T10:40:48.709Z,12.40
2019-04-24T10:46:42.037Z,12.18
2019-04-24T10:49:19.032Z,12.80
2019-04-24T10:52:05.320Z,15.23
2019-04-24T10:54:34.838Z,12.90
2019-04-24T10:56:56.948Z,10.50
2019-04-24T10:59:37.535Z,10.93
2019-04-24T11:02:28.850Z,11.80
2019-04-24T11:05:22.005Z,11.18
2019-04-24T11:07:53.555Z,10.90
2019-04-24T11:10:43.980Z,11.65
2019-04-24T11:13:33.227Z,11.95
2019-04-24T11:16:18.740Z,14.73
2019-04-24T11:24:19.846Z,11.25
2019-04-24T11:26:54.265Z,10.13
2019-04-24T11:29:43.308Z,14.50
2019-04-24T11:37:51.938Z,13.20
2019-04-24T11:40:38.305Z,14.55
2019-04-24T11:42:53.902Z,11.03
2019-04-24T11:45:49.231Z,10.58
2019-04-24T11:51:44.383Z,14.15
2019-04-24T11:53:54.338Z,11.80
2019-04-24T11:56:58.128Z,10.30
2019-04-24T11:59:00.933Z,13.05
2019-04-24T12:02:05.288Z,16.80
2019-04-24T12:07:09.898Z,10.80
2019-04-24T12:12:14.593Z,12.93
2019-04-24T12:15:01.117Z,13.22
2019-04-24T12:17:50.115Z,11.05
2019-04-24T12:20:26.784Z,12.98
2019-04-24T12:25:38.112Z,11.90
2019-04-24T12:30:46.762Z,13.95
2019-04-24T12:33:26.614Z,14.20
2019-04-24T12:35:56.740Z,11.97
2019-04-24T12:38:34.555Z,11.15
2019-04-24T12:41:08.120Z,16.12
2019-04-24T12:43:55.574Z,10.50
2019-04-24T12:46:25.241Z,12.25
2019-04-24T12:51:10.470Z,11.78
2019-04-24T12:54:09.773Z,15.15
2019-04-24T12:59:38.024Z,16.12
2019-04-24T13:02:03.454Z,10.80
2019-04-24T13:07:25.921Z,13.80
2019-04-24T13:10:06.861Z,11.65
2019-04-24T13:12:53.885Z,15.72
2019-04-24T13:15:17.936Z,10.32
2019-04-24T13:20:17.747Z,12.33
2019-04-24T13:22:51.842Z,10.82
2019-04-24T13:26:02.349Z,11.90
2019-04-24T13:31:17.310Z,17.23
2019-04-24T13:33:38.528Z,14.13
2019-04-24T13:36:18.224Z,11.80
2019-04-24T13:38:52.844Z,14.15
2019-04-24T13:41:43.537Z,10.72
2019-04-24T13:46:38.437Z,17.35
2019-04-24T13:48:57.598Z,14.63
2019-04-24T13:51:13.826Z,12.53
2019-04-24T13:53:56.759Z,11.50
2019-04-24T13:56:16.946Z,14.87
2019-04-24T13:58:52.070Z,13.60
2019-04-24T14:06:34.677Z,13.28
2019-04-24T14:09:11.908Z,15.72
2019-04-24T14:16:28.063Z,19.55
2019-04-24T14:21:42.806Z,19.48
2019-04-24T14:26:49.049Z,13.15
2019-04-24T14:29:12.784Z,13.15
2019-04-24T14:31:58.539Z,13.20
2019-04-24T14:34:34.021Z,14.10
2019-04-24T14:36:49.225Z,13.10
2019-04-24T14:39:23.797Z,21.62
2019-04-24T14:41:57.421Z,12.63
2019-04-24T14:44:56.094Z,12.63
2019-04-24T14:52:38.199Z,22.70
2019-04-24T14:55:22.990Z,14.87
2019-04-24T14:57:46.017Z,14.07
2019-04-24T15:00:18.391Z,13.45
2019-04-24T15:02:49.800Z,14.18
2019-04-24T15:05:22.049Z,14.45
2019-04-24T15:07:55.277Z,14.27
2019-04-24T15:12:56.284Z,14.83
2019-04-24T15:15:22.181Z,14.63
2019-04-24T15:18:10.870Z,16.12
2019-04-24T15:20:39.655Z,15.40
2019-04-24T15:23:13.203Z,18.90
2019-04-24T15:25:57.096Z,14.68
2019-04-24T15:28:17.362Z,13.85
2019-04-24T15:30:50.944Z,14.47
2019-04-24T15:33:18.111Z,14.97
2019-04-24T15:35:54.542Z,15.10
2019-04-24T15:38:16.761Z,15.53
2019-04-24T15:40:57.748Z,14.68
2019-04-24T15:43:22.801Z,14.27
2019-04-24T15:45:56.558Z,13.05
2019-04-24T15:52:56.327Z,15.48
2019-04-24T15:55:39.127Z,11.75
2019-04-24T15:58:19.475Z,13.28
2019-04-24T16:01:20.549Z,11.67
2019-04-24T16:03:54.032Z,18.30
2019-04-24T16:06:01.550Z,15.60
2019-04-24T16:08:30.574Z,13.10
2019-04-24T16:11:00.088Z,11.15
2019-04-24T16:13:35.232Z,14.25
2019-04-24T16:24:30.342Z,9.47
2019-04-24T16:26:31.885Z,10.67
2019-04-24T16:29:10.058Z,10.80
2019-04-24T16:32:09.115Z,14.80
2019-04-24T16:34:16.467Z,11.63
2019-04-24T16:36:51.613Z,9.70
2019-04-24T16:39:08.340Z,9.00
2019-04-24T16:41:45.311Z,8.30
2019-04-24T16:44:20.007Z,8.80
2019-04-24T16:51:57.151Z,9.17
2019-04-24T16:56:47.758Z,9.53
2019-04-24T16:59:15.106Z,7.97
2019-04-24T17:04:29.332Z,7.50
2019-04-24T17:09:31.938Z,7.77
2019-04-24T17:17:38.887Z,8.47
2019-04-24T17:20:08.017Z,8.37
2019-04-24T17:25:08.528Z,10.30
2019-04-24T17:30:12.646Z,10.03
2019-04-24T17:37:12.527Z,6.57
2019-04-24T17:39:50.995Z,10.57
2019-04-24T17:42:34.197Z,6.53
2019-04-24T17:47:57.605Z,8.13
2019-04-24T17:50:23.293Z,11.27
2019-04-24T17:53:08.196Z,9.60
2019-04-24T17:55:25.244Z,7.90
2019-04-24T17:59:59.528Z,8.70
2019-04-24T18:02:28.690Z,9.03
2019-04-24T18:04:57.934Z,9.53
2019-04-24T18:07:27.390Z,10.37
2019-04-24T18:09:56.455Z,8.13
2019-04-24T18:12:25.460Z,8.53
2019-04-24T18:14:54.411Z,7.07
2019-04-24T18:17:23.495Z,8.63
2019-04-24T18:19:52.569Z,7.57
2019-04-24T18:22:22.546Z,8.47
2019-04-24T18:25:16.839Z,5.90
2019-04-24T18:27:46.929Z,7.67
2019-04-24T18:30:17.667Z,7.00
2019-04-24T18:32:46.972Z,9.40
2019-04-24T18:35:16.218Z,13.60
2019-04-24T18:37:45.169Z,17.83
2019-04-24T18:40:15.172Z,18.70
2019-04-24T18:42:44.395Z,15.67
2019-04-24T18:45:15.369Z,14.63
2019-04-24T18:47:44.469Z,16.97
2019-04-24T18:50:13.650Z,20.93
2019-04-24T18:52:49.768Z,17.50
2019-04-24T18:55:14.443Z,17.50
2019-04-24T18:57:43.599Z,21.13
2019-04-24T19:00:13.110Z,21.37
2019-04-24T19:02:42.148Z,20.00
2019-04-24T19:05:13.780Z,22.13
2019-04-24T19:07:42.187Z,19.67
2019-04-24T19:10:12.632Z,18.60
2019-04-24T19:12:41.906Z,20.67
2019-04-24T19:15:12.447Z,26.63
2019-04-24T19:17:54.142Z,21.23
2019-04-24T19:20:13.924Z,23.40
2019-04-24T19:22:43.027Z,19.23
2019-04-24T19:25:12.942Z,21.90
2019-04-24T19:27:42.886Z,16.83
2019-04-24T19:30:13.531Z,14.83
2019-04-24T19:32:42.606Z,14.37
2019-04-24T19:35:13.565Z,13.33
2019-04-24T19:37:42.600Z,13.40
2019-04-24T19:40:25.655Z,17.03
2019-04-24T19:42:42.742Z,14.67
2019-04-24T19:45:13.622Z,17.10
2019-04-24T19:47:43.177Z,15.50
2019-04-24T19:50:13.427Z,15.17
2019-04-24T19:52:42.851Z,16.00
2019-04-24T19:55:15.483Z,14.73
2019-04-24T19:57:42.764Z,12.80
2019-04-24T20:00:13.469Z,13.73
2019-04-24T20:02:42.648Z,14.27
2019-04-24T20:05:14.548Z,13.67
2019-04-24T20:07:42.370Z,13.17
2019-04-24T20:10:31.625Z,17.97
2019-04-24T20:13:02.728Z,16.17
2019-04-24T20:15:32.160Z,13.10
2019-04-24T20:18:02.219Z,13.63
2019-04-24T20:20:31.298Z,16.53
2019-04-24T20:23:00.214Z,16.60
2019-04-24T20:25:29.156Z,17.73
2019-04-24T20:27:58.111Z,14.87
2019-04-24T20:30:27.034Z,13.70
2019-04-24T20:32:55.999Z,13.23
2019-04-24T20:35:25.706Z,13.63
2019-04-24T20:37:54.896Z,14.80
2019-04-24T20:40:25.151Z,13.83
2019-04-24T20:42:54.492Z,13.70
2019-04-24T20:45:24.003Z,14.93
2019-04-24T20:47:53.628Z,16.23
2019-04-24T20:50:23.567Z,16.13
2019-04-24T20:52:53.411Z,15.10
2019-04-24T20:55:22.762Z,15.43
2019-04-24T20:57:52.558Z,16.63
2019-04-24T21:00:26.079Z,15.77
2019-04-24T21:02:55.098Z,15.10
2019-04-24T21:05:28.310Z,15.80
2019-04-24T21:08:10.241Z,14.33
2019-04-24T21:10:39.400Z,16.67
2019-04-24T21:13:08.369Z,15.80
2019-04-24T21:15:37.573Z,15.40
2019-04-24T21:18:06.608Z,14.90
2019-04-24T21:20:35.843Z,14.10
2019-04-24T21:23:04.895Z,40.47
2019-04-24T21:25:34.063Z,14.93
2019-04-24T21:28:03.306Z,19.83
2019-04-24T21:30:32.766Z,13.90
2019-04-24T21:33:01.829Z,14.20
2019-04-24T21:35:30.904Z,15.47
2019-04-24T21:38:01.400Z,14.57
2019-04-24T21:40:31.921Z,17.07
2019-04-24T21:43:01.567Z,16.07
2019-04-24T21:45:30.611Z,18.53
2019-04-24T21:47:59.543Z,16.77
2019-04-24T21:50:28.747Z,15.07
2019-04-24T21:52:57.679Z,19.17
2019-04-24T21:55:26.802Z,17.30
2019-04-24T21:58:03.138Z,15.57
2019-04-24T22:00:54.425Z,16.70
2019-04-24T22:03:46.972Z,15.33
2019-04-24T22:06:18.926Z,19.87
2019-04-24T22:08:47.882Z,16.10
2019-04-24T22:11:18.077Z,15.40
2019-04-24T22:13:47.303Z,15.90
2019-04-24T22:16:16.396Z,15.30
2019-04-24T22:18:45.475Z,16.60
2019-04-24T22:21:18.144Z,21.60
2019-04-24T22:23:53.458Z,14.93
2019-04-24T22:26:23.982Z,14.83
2019-04-24T22:28:53.152Z,15.93
2019-04-24T22:31:27.137Z,16.90
2019-04-24T22:34:09.028Z,14.43
2019-04-24T22:36:38.122Z,17.90
2019-04-24T22:39:25.689Z,14.70
2019-04-24T22:41:55.162Z,18.27
2019-04-24T22:44:24.247Z,17.93
2019-04-24T22:46:53.288Z,15.20
2019-04-24T22:49:22.251Z,15.73
2019-04-24T22:51:52.106Z,14.97
2019-04-24T22:54:29.083Z,16.40
2019-04-24T22:56:58.555Z,15.97
2019-04-24T22:59:23.198Z,15.53
2019-04-24T23:01:59.355Z,20.13
2019-04-24T23:04:23.473Z,18.70
2019-04-24T23:06:52.570Z,16.63
2019-04-24T23:09:24.436Z,16.90
2019-04-24T23:11:53.631Z,18.50
2019-04-24T23:14:22.976Z,16.20
2019-04-24T23:16:52.910Z,20.87
2019-04-24T23:19:23.797Z,17.97
2019-04-24T23:22:02.199Z,19.17
2019-04-24T23:24:59.295Z,18.57
2019-04-24T23:27:46.035Z,16.93
2019-04-24T23:30:32.482Z,15.73
2019-04-24T23:33:09.239Z,19.27
2019-04-24T23:35:38.304Z,17.50
2019-04-24T23:38:07.314Z,18.00
2019-04-24T23:40:36.354Z,18.97
2019-04-24T23:43:05.635Z,15.67
2019-04-24T23:45:35.016Z,19.03
2019-04-24T23:48:04.013Z,18.47
2019-04-24T23:50:32.974Z,17.80
2019-04-24T23:53:01.934Z,15.90
2019-04-24T23:55:31.633Z,22.50
2019-04-24T23:58:00.651Z,16.33
